Gilberts, Illinois
Current Conditions -  °F | °C
As of 9:52 AM on Wednesday 22 Oct 2014 (Local Time) from KDPA Reporting Station
Clear Clear  
Wind Chill: 51°   Ceiling: Unl
Heat Index: 51°   Visibility: 10mi
Dew Point: 42°   Wind: 3mph
Humidity: 71%   Direction: 350°N
Pressure: 30.35"   Gusts: NA
Location:  42.1°N, 88.37°W
Report Text: KDPA 221452Z 35003KT 10SM CLR 11/06 A3035 RMK AO2 SLP283 T01060056 51011
Loading
Personal Weather Stations






























Interactive Weather Map
Tropical Storm Tracking
New forecast layout! Learn more

10-Day Weather Forecast

Advertisements
Track Severe Weather on mobile